Jonesboro, Georgia
Current Conditions -  °F | °C
As of 8:52 AM on Wednesday 26 Nov 2014 (Local Time) from KATL Reporting Station
Few Clouds Few Clouds  
Wind Chill: 37°   Ceiling: Unl
Heat Index: 44°   Visibility: 10mi
Dew Point: 32°   Wind: 16mph
Humidity: 63%   Direction: 310°NW
Pressure: 30.06"   Gusts: NA
Location:  33.52°N, 84.35°W
Report Text: KATL 261352Z 31014KT 10SM FEW100 07/00 A3006 RMK AO2 SLP181 T00670000
Loading
Personal Weather Stations






























Interactive Weather Map New forecast layout! Learn more

10-Day Weather Forecast

Advertisements
Track Severe Weather on mobile